Falls City, Idaho
Current Conditions -  °F | °C
As of 12:06 AM on Sunday 23 Nov 2014 (Local Time) from KJER Reporting Station
Overcast Overcast  
Wind Chill: 21°   Ceiling: 3400
Heat Index: 32°   Visibility: 10mi
Dew Point: 29°   Wind: 16mph
Humidity: 88%   Direction: 240°WSW
Pressure: 29.99"   Gusts: NA
Location:  42.7238°N, 114.338°W
Report Text: KJER 230706Z AUTO 24014KT 10SM SCT014 BKN034 OVC085 00/M02 A2999 RMK AO2 T00001017
Loading
Personal Weather Stations






























Interactive Weather Map New forecast layout! Learn more

10-Day Weather Forecast

Advertisements
Track Severe Weather on mobile